sensor_id;sensor_type;location;lat;lon;timestamp;pressure;altitude;pressure_sealevel;temperature;humidity
20622;BME280;10470;42.670;23.354;2023-03-15T00:01:39;93865.41;;;7.85;58.26
20622;BME280;10470;42.670;23.354;2023-03-15T00:04:04;93863.13;;;7.93;58.20
20622;BME280;10470;42.670;23.354;2023-03-15T00:06:33;93856.97;;;7.74;58.18
20622;BME280;10470;42.670;23.354;2023-03-15T00:08:59;93856.69;;;7.81;58.38
20622;BME280;10470;42.670;23.354;2023-03-15T00:11:27;93847.47;;;7.97;58.18
20622;BME280;10470;42.670;23.354;2023-03-15T00:13:52;93849.59;;;7.84;58.34
20622;BME280;10470;42.670;23.354;2023-03-15T00:16:18;93845.06;;;7.90;58.50
20622;BME280;10470;42.670;23.354;2023-03-15T00:18:45;93846.25;;;8.07;58.17
20622;BME280;10470;42.670;23.354;2023-03-15T00:21:11;93849.13;;;7.95;58.01
20622;BME280;10470;42.670;23.354;2023-03-15T00:23:37;93854.69;;;8.09;57.99
20622;BME280;10470;42.670;23.354;2023-03-15T00:26:03;93855.75;;;8.03;57.99
20622;BME280;10470;42.670;23.354;2023-03-15T00:28:28;93861.03;;;7.97;58.52
20622;BME280;10470;42.670;23.354;2023-03-15T00:31:11;93856.66;;;8.00;58.77
20622;BME280;10470;42.670;23.354;2023-03-15T00:33:38;93851.81;;;8.04;58.92
20622;BME280;10470;42.670;23.354;2023-03-15T00:36:05;93850.34;;;7.84;58.96
20622;BME280;10470;42.670;23.354;2023-03-15T00:38:33;93841.31;;;7.87;59.64
20622;BME280;10470;42.670;23.354;2023-03-15T00:41:04;93833.78;;;7.73;59.97
20622;BME280;10470;42.670;23.354;2023-03-15T00:43:30;93826.25;;;7.77;60.23
20622;BME280;10470;42.670;23.354;2023-03-15T00:45:57;93834.06;;;7.84;59.89
20622;BME280;10470;42.670;23.354;2023-03-15T00:48:22;93833.31;;;7.84;59.75
20622;BME280;10470;42.670;23.354;2023-03-15T00:50:48;93833.75;;;7.36;61.82
20622;BME280;10470;42.670;23.354;2023-03-15T00:53:13;93831.50;;;7.44;62.88
20622;BME280;10470;42.670;23.354;2023-03-15T00:55:38;93813.19;;;6.89;66.98
20622;BME280;10470;42.670;23.354;2023-03-15T00:58:04;93815.53;;;7.28;69.15
20622;BME280;10470;42.670;23.354;2023-03-15T01:00:29;93812.06;;;7.27;71.20
20622;BME280;10470;42.670;23.354;2023-03-15T01:02:55;93807.56;;;7.33;74.62
20622;BME280;10470;42.670;23.354;2023-03-15T01:05:21;93807.41;;;7.28;76.60
20622;BME280;10470;42.670;23.354;2023-03-15T01:07:46;93791.75;;;7.32;78.91
20622;BME280;10470;42.670;23.354;2023-03-15T01:10:14;93790.25;;;7.31;79.67
20622;BME280;10470;42.670;23.354;2023-03-15T01:12:40;93794.31;;;7.44;80.65
20622;BME280;10470;42.670;23.354;2023-03-15T01:15:06;93803.03;;;7.49;81.22
20622;BME280;10470;42.670;23.354;2023-03-15T01:17:33;93797.16;;;7.41;82.07
20622;BME280;10470;42.670;23.354;2023-03-15T01:19:59;93793.09;;;7.27;83.17
20622;BME280;10470;42.670;23.354;2023-03-15T01:22:24;93787.97;;;7.20;85.21
20622;BME280;10470;42.670;23.354;2023-03-15T01:24:50;93781.47;;;6.99;87.90
20622;BME280;10470;42.670;23.354;2023-03-15T01:27:15;93776.97;;;7.14;88.71
20622;BME280;10470;42.670;23.354;2023-03-15T01:29:41;93779.56;;;7.27;87.95
20622;BME280;10470;42.670;23.354;2023-03-15T01:32:07;93780.59;;;7.20;89.44
20622;BME280;10470;42.670;23.354;2023-03-15T01:34:32;93770.66;;;7.08;89.59
20622;BME280;10470;42.670;23.354;2023-03-15T01:36:58;93771.13;;;7.25;89.12
20622;BME280;10470;42.670;23.354;2023-03-15T01:39:23;93775.28;;;6.89;90.71
20622;BME280;10470;42.670;23.354;2023-03-15T01:41:49;93767.50;;;7.19;91.02
20622;BME280;10470;42.670;23.354;2023-03-15T01:44:16;93764.78;;;7.00;91.26
20622;BME280;10470;42.670;23.354;2023-03-15T01:46:42;93761.16;;;7.13;92.22
20622;BME280;10470;42.670;23.354;2023-03-15T01:49:14;93756.22;;;7.11;91.69
20622;BME280;10470;42.670;23.354;2023-03-15T01:54:16;93751.56;;;7.12;92.98
20622;BME280;10470;42.670;23.354;2023-03-15T01:56:51;93745.69;;;7.22;92.74
20622;BME280;10470;42.670;23.354;2023-03-15T01:59:25;93738.00;;;7.21;92.53
20622;BME280;10470;42.670;23.354;2023-03-15T02:01:53;93746.44;;;7.23;92.83
20622;BME280;10470;42.670;23.354;2023-03-15T02:04:33;93741.78;;;7.33;91.03
20622;BME280;10470;42.670;23.354;2023-03-15T02:07:02;93746.13;;;7.12;92.27
20622;BME280;10470;42.670;23.354;2023-03-15T02:09:39;93738.44;;;7.10;94.05
20622;BME280;10470;42.670;23.354;2023-03-15T02:12:08;93733.66;;;7.14;92.96
20622;BME280;10470;42.670;23.354;2023-03-15T02:14:34;93722.66;;;7.18;94.09
20622;BME280;10470;42.670;23.354;2023-03-15T02:16:59;93725.22;;;7.21;94.43
20622;BME280;10470;42.670;23.354;2023-03-15T02:24:49;93711.97;;;7.14;91.43
20622;BME280;10470;42.670;23.354;2023-03-15T02:27:25;93710.63;;;7.10;88.59
20622;BME280;10470;42.670;23.354;2023-03-15T02:29:53;93705.81;;;6.95;85.21
20622;BME280;10470;42.670;23.354;2023-03-15T02:32:18;93721.16;;;7.08;82.92
20622;BME280;10470;42.670;23.354;2023-03-15T02:34:43;93706.09;;;7.07;82.02
20622;BME280;10470;42.670;23.354;2023-03-15T02:37:09;93715.75;;;6.98;77.71
20622;BME280;10470;42.670;23.354;2023-03-15T02:39:34;93718.88;;;6.78;74.70
20622;BME280;10470;42.670;23.354;2023-03-15T02:42:00;93719.16;;;6.62;73.67
20622;BME280;10470;42.670;23.354;2023-03-15T02:44:29;93715.22;;;6.63;72.70
20622;BME280;10470;42.670;23.354;2023-03-15T02:47:01;93720.16;;;6.55;72.52
20622;BME280;10470;42.670;23.354;2023-03-15T02:49:37;93719.00;;;6.66;72.69
20622;BME280;10470;42.670;23.354;2023-03-15T02:52:04;93707.09;;;6.54;72.13
20622;BME280;10470;42.670;23.354;2023-03-15T02:54:29;93710.28;;;6.62;72.53
20622;BME280;10470;42.670;23.354;2023-03-15T02:57:02;93707.53;;;6.52;71.74
20622;BME280;10470;42.670;23.354;2023-03-15T02:59:27;93702.41;;;6.45;72.21
20622;BME280;10470;42.670;23.354;2023-03-15T03:01:53;93700.50;;;6.64;71.88
20622;BME280;10470;42.670;23.354;2023-03-15T03:04:18;93704.09;;;6.52;71.72
20622;BME280;10470;42.670;23.354;2023-03-15T03:06:45;93690.81;;;6.36;72.35
20622;BME280;10470;42.670;23.354;2023-03-15T03:09:10;93688.81;;;6.27;73.53
20622;BME280;10470;42.670;23.354;2023-03-15T03:11:36;93680.72;;;6.27;73.89
20622;BME280;10470;42.670;23.354;2023-03-15T03:14:02;93683.72;;;6.29;74.28
20622;BME280;10470;42.670;23.354;2023-03-15T03:16:27;93686.31;;;6.42;74.62
20622;BME280;10470;42.670;23.354;2023-03-15T03:18:53;93684.19;;;6.37;75.00
20622;BME280;10470;42.670;23.354;2023-03-15T03:21:19;93679.66;;;6.24;75.46
20622;BME280;10470;42.670;23.354;2023-03-15T03:23:44;93676.63;;;6.13;75.88
20622;BME280;10470;42.670;23.354;2023-03-15T03:26:15;93672.84;;;6.10;76.49
20622;BME280;10470;42.670;23.354;2023-03-15T03:28:43;93673.66;;;6.29;76.39
20622;BME280;10470;42.670;23.354;2023-03-15T03:31:18;93667.03;;;6.21;76.16
20622;BME280;10470;42.670;23.354;2023-03-15T03:33:43;93674.88;;;6.38;75.56
20622;BME280;10470;42.670;23.354;2023-03-15T03:36:09;93657.47;;;6.39;75.17
20622;BME280;10470;42.670;23.354;2023-03-15T03:38:39;93661.97;;;6.42;74.98
20622;BME280;10470;42.670;23.354;2023-03-15T03:41:05;93655.81;;;6.50;74.69
20622;BME280;10470;42.670;23.354;2023-03-15T03:43:30;93658.84;;;6.62;74.24
20622;BME280;10470;42.670;23.354;2023-03-15T03:45:56;93648.63;;;6.56;74.37
20622;BME280;10470;42.670;23.354;2023-03-15T03:48:21;93656.75;;;6.56;74.72
20622;BME280;10470;42.670;23.354;2023-03-15T03:50:46;93645.47;;;6.67;74.42
20622;BME280;10470;42.670;23.354;2023-03-15T03:53:12;93655.53;;;6.57;74.32
20622;BME280;10470;42.670;23.354;2023-03-15T03:55:37;93652.81;;;6.57;74.28
20622;BME280;10470;42.670;23.354;2023-03-15T03:58:03;93647.84;;;6.47;75.09
20622;BME280;10470;42.670;23.354;2023-03-15T04:00:28;93638.22;;;6.37;75.94
20622;BME280;10470;42.670;23.354;2023-03-15T04:02:54;93618.47;;;6.08;77.39
20622;BME280;10470;42.670;23.354;2023-03-15T04:05:20;93635.81;;;6.39;77.44
20622;BME280;10470;42.670;23.354;2023-03-15T04:07:45;93638.25;;;6.55;76.75
20622;BME280;10470;42.670;23.354;2023-03-15T04:10:11;93625.44;;;6.37;76.95
20622;BME280;10470;42.670;23.354;2023-03-15T04:12:41;93628.16;;;6.55;76.98
20622;BME280;10470;42.670;23.354;2023-03-15T04:15:07;93634.31;;;6.47;76.51
20622;BME280;10470;42.670;23.354;2023-03-15T04:17:33;93622.13;;;6.33;76.67
20622;BME280;10470;42.670;23.354;2023-03-15T04:19:58;93635.38;;;6.49;77.46
20622;BME280;10470;42.670;23.354;2023-03-15T04:22:26;93629.47;;;6.32;78.44
20622;BME280;10470;42.670;23.354;2023-03-15T04:24:52;93630.22;;;6.24;78.84
20622;BME280;10470;42.670;23.354;2023-03-15T04:27:18;93621.50;;;6.20;80.09
20622;BME280;10470;42.670;23.354;2023-03-15T04:29:44;93628.38;;;6.02;80.93
20622;BME280;10470;42.670;23.354;2023-03-15T04:32:09;93624.78;;;6.15;81.52
20622;BME280;10470;42.670;23.354;2023-03-15T04:34:35;93626.50;;;6.30;80.72
20622;BME280;10470;42.670;23.354;2023-03-15T04:37:04;93614.75;;;6.24;80.61
20622;BME280;10470;42.670;23.354;2023-03-15T04:39:30;93616.50;;;6.09;81.57
20622;BME280;10470;42.670;23.354;2023-03-15T04:41:56;93615.13;;;6.04;83.06
20622;BME280;10470;42.670;23.354;2023-03-15T04:44:21;93620.28;;;6.11;83.91
20622;BME280;10470;42.670;23.354;2023-03-15T04:46:51;93620.84;;;6.06;84.90
20622;BME280;10470;42.670;23.354;2023-03-15T04:49:16;93621.03;;;6.12;86.15
20622;BME280;10470;42.670;23.354;2023-03-15T04:51:42;93619.38;;;6.05;86.37
20622;BME280;10470;42.670;23.354;2023-03-15T04:54:07;93625.66;;;6.02;86.88
20622;BME280;10470;42.670;23.354;2023-03-15T04:56:33;93630.06;;;6.27;86.56
20622;BME280;10470;42.670;23.354;2023-03-15T04:59:00;93625.13;;;6.35;86.14
20622;BME280;10470;42.670;23.354;2023-03-15T05:01:30;93625.09;;;6.17;87.66
20622;BME280;10470;42.670;23.354;2023-03-15T05:03:56;93616.44;;;6.31;88.96
20622;BME280;10470;42.670;23.354;2023-03-15T05:06:22;93609.06;;;6.31;90.48
20622;BME280;10470;42.670;23.354;2023-03-15T05:08:48;93620.19;;;6.33;90.73
20622;BME280;10470;42.670;23.354;2023-03-15T05:11:13;93623.63;;;6.34;92.09
20622;BME280;10470;42.670;23.354;2023-03-15T05:13:39;93623.00;;;6.30;95.14
20622;BME280;10470;42.670;23.354;2023-03-15T05:16:04;93618.06;;;6.38;95.56
20622;BME280;10470;42.670;23.354;2023-03-15T05:18:30;93616.13;;;6.38;96.86
20622;BME280;10470;42.670;23.354;2023-03-15T05:20:55;93629.31;;;6.27;98.79
20622;BME280;10470;42.670;23.354;2023-03-15T05:23:22;93621.09;;;6.49;99.58
20622;BME280;10470;42.670;23.354;2023-03-15T05:25:54;93618.25;;;6.52;99.99
20622;BME280;10470;42.670;23.354;2023-03-15T05:28:21;93619.44;;;6.61;100.00
20622;BME280;10470;42.670;23.354;2023-03-15T05:30:48;93623.81;;;6.58;100.00
20622;BME280;10470;42.670;23.354;2023-03-15T05:33:14;93622.16;;;6.61;100.00
20622;BME280;10470;42.670;23.354;2023-03-15T05:35:41;93620.66;;;6.50;100.00
20622;BME280;10470;42.670;23.354;2023-03-15T05:38:08;93616.16;;;6.56;100.00
20622;BME280;10470;42.670;23.354;2023-03-15T05:40:33;93606.53;;;6.74;100.00
20622;BME280;10470;42.670;23.354;2023-03-15T05:42:58;93612.84;;;6.71;100.00
20622;BME280;10470;42.670;23.354;2023-03-15T05:45:24;93612.84;;;6.80;100.00
20622;BME280;10470;42.670;23.354;2023-03-15T05:47:49;93613.91;;;6.64;99.17
20622;BME280;10470;42.670;23.354;2023-03-15T05:50:15;93611.94;;;6.83;95.22
20622;BME280;10470;42.670;23.354;2023-03-15T05:52:41;93605.16;;;6.78;95.29
20622;BME280;10470;42.670;23.354;2023-03-15T05:55:07;93608.31;;;6.86;90.72
20622;BME280;10470;42.670;23.354;2023-03-15T05:57:32;93603.22;;;6.61;88.31
20622;BME280;10470;42.670;23.354;2023-03-15T05:59:58;93621.41;;;6.60;87.51
20622;BME280;10470;42.670;23.354;2023-03-15T06:02:23;93618.41;;;6.76;84.16
20622;BME280;10470;42.670;23.354;2023-03-15T06:04:49;93614.38;;;6.72;83.59
20622;BME280;10470;42.670;23.354;2023-03-15T06:07:14;93614.78;;;6.79;81.73
20622;BME280;10470;42.670;23.354;2023-03-15T06:09:40;93613.72;;;6.77;80.89
20622;BME280;10470;42.670;23.354;2023-03-15T06:12:06;93612.69;;;6.84;83.63
20622;BME280;10470;42.670;23.354;2023-03-15T06:14:31;93585.63;;;6.47;83.01
20622;BME280;10470;42.670;23.354;2023-03-15T06:16:57;93592.53;;;7.03;81.66
20622;BME280;10470;42.670;23.354;2023-03-15T06:19:22;93617.44;;;7.35;79.70
20622;BME280;10470;42.670;23.354;2023-03-15T06:21:48;93616.56;;;7.10;79.98
20622;BME280;10470;42.670;23.354;2023-03-15T06:24:13;93618.94;;;7.36;81.16
20622;BME280;10470;42.670;23.354;2023-03-15T06:26:39;93626.59;;;7.47;79.20
20622;BME280;10470;42.670;23.354;2023-03-15T06:29:05;93628.81;;;7.57;77.33
20622;BME280;10470;42.670;23.354;2023-03-15T06:31:30;93617.69;;;7.55;76.88
20622;BME280;10470;42.670;23.354;2023-03-15T06:33:56;93613.47;;;7.54;76.93
20622;BME280;10470;42.670;23.354;2023-03-15T06:36:21;93611.31;;;7.68;76.31
20622;BME280;10470;42.670;23.354;2023-03-15T06:38:49;93611.41;;;7.82;75.79
20622;BME280;10470;42.670;23.354;2023-03-15T06:41:14;93619.44;;;8.10;75.03
20622;BME280;10470;42.670;23.354;2023-03-15T06:43:40;93611.00;;;8.08;74.50
20622;BME280;10470;42.670;23.354;2023-03-15T06:46:06;93606.97;;;8.27;73.50
20622;BME280;10470;42.670;23.354;2023-03-15T06:48:32;93601.44;;;8.22;73.18
20622;BME280;10470;42.670;23.354;2023-03-15T06:50:57;93603.16;;;8.10;74.55
20622;BME280;10470;42.670;23.354;2023-03-15T06:53:23;93608.13;;;8.12;74.92
20622;BME280;10470;42.670;23.354;2023-03-15T06:55:48;93613.44;;;8.30;74.71
20622;BME280;10470;42.670;23.354;2023-03-15T06:58:15;93614.47;;;8.42;74.17
20622;BME280;10470;42.670;23.354;2023-03-15T07:00:41;93606.84;;;7.98;74.63
20622;BME280;10470;42.670;23.354;2023-03-15T07:03:07;93602.53;;;8.15;75.68
20622;BME280;10470;42.670;23.354;2023-03-15T07:05:32;93601.94;;;8.11;76.12
20622;BME280;10470;42.670;23.354;2023-03-15T07:07:57;93600.66;;;8.30;75.93
20622;BME280;10470;42.670;23.354;2023-03-15T07:10:23;93602.44;;;8.58;74.66
20622;BME280;10470;42.670;23.354;2023-03-15T07:12:49;93596.41;;;8.78;73.88
20622;BME280;10470;42.670;23.354;2023-03-15T07:15:15;93601.59;;;8.90;73.82
20622;BME280;10470;42.670;23.354;2023-03-15T07:17:40;93598.00;;;8.69;73.85
20622;BME280;10470;42.670;23.354;2023-03-15T07:20:06;93596.38;;;9.02;73.79
20622;BME280;10470;42.670;23.354;2023-03-15T07:22:33;93595.19;;;9.47;71.68
20622;BME280;10470;42.670;23.354;2023-03-15T07:24:59;93607.53;;;9.04;71.34
20622;BME280;10470;42.670;23.354;2023-03-15T07:27:25;93599.63;;;8.91;72.05
20622;BME280;10470;42.670;23.354;2023-03-15T07:29:50;93596.56;;;9.28;71.81
20622;BME280;10470;42.670;23.354;2023-03-15T07:32:16;93596.88;;;9.30;70.96
20622;BME280;10470;42.670;23.354;2023-03-15T07:34:42;93598.38;;;9.16;68.94
20622;BME280;10470;42.670;23.354;2023-03-15T07:37:07;93594.34;;;9.26;67.94
20622;BME280;10470;42.670;23.354;2023-03-15T07:39:33;93600.22;;;9.25;67.76
20622;BME280;10470;42.670;23.354;2023-03-15T07:41:59;93608.56;;;9.06;67.97
20622;BME280;10470;42.670;23.354;2023-03-15T07:44:25;93614.00;;;9.51;67.55
20622;BME280;10470;42.670;23.354;2023-03-15T07:46:50;93603.50;;;9.73;66.99
20622;BME280;10470;42.670;23.354;2023-03-15T07:49:16;93596.22;;;10.00;67.28
20622;BME280;10470;42.670;23.354;2023-03-15T07:51:41;93603.59;;;10.14;67.87
20622;BME280;10470;42.670;23.354;2023-03-15T07:54:07;93602.06;;;9.78;68.26
20622;BME280;10470;42.670;23.354;2023-03-15T07:56:33;93588.44;;;10.07;67.93
20622;BME280;10470;42.670;23.354;2023-03-15T07:58:59;93592.50;;;9.97;67.62
20622;BME280;10470;42.670;23.354;2023-03-15T08:01:24;93589.53;;;10.16;68.55
20622;BME280;10470;42.670;23.354;2023-03-15T08:03:50;93592.97;;;10.31;67.21
20622;BME280;10470;42.670;23.354;2023-03-15T08:06:15;93590.53;;;10.33;66.11
20622;BME280;10470;42.670;23.354;2023-03-15T08:08:40;93583.41;;;10.21;66.61
20622;BME280;10470;42.670;23.354;2023-03-15T08:11:06;93589.38;;;10.40;65.80
20622;BME280;10470;42.670;23.354;2023-03-15T08:13:32;93585.72;;;10.43;64.93
20622;BME280;10470;42.670;23.354;2023-03-15T08:15:58;93578.34;;;10.49;63.65
20622;BME280;10470;42.670;23.354;2023-03-15T08:18:23;93570.31;;;10.40;64.46
20622;BME280;10470;42.670;23.354;2023-03-15T08:20:49;93569.16;;;10.67;64.06
20622;BME280;10470;42.670;23.354;2023-03-15T08:23:15;93561.88;;;11.05;62.99
20622;BME280;10470;42.670;23.354;2023-03-15T08:25:43;93552.25;;;10.83;64.09
20622;BME280;10470;42.670;23.354;2023-03-15T08:28:09;93564.09;;;11.01;63.24
20622;BME280;10470;42.670;23.354;2023-03-15T08:30:35;93566.59;;;11.30;63.08
20622;BME280;10470;42.670;23.354;2023-03-15T08:33:01;93557.72;;;11.09;63.75
20622;BME280;10470;42.670;23.354;2023-03-15T08:35:28;93560.66;;;11.32;63.89
20622;BME280;10470;42.670;23.354;2023-03-15T08:37:53;93575.28;;;10.82;63.48
20622;BME280;10470;42.670;23.354;2023-03-15T08:40:20;93567.91;;;10.88;63.82
20622;BME280;10470;42.670;23.354;2023-03-15T08:42:48;93570.53;;;11.55;63.26
20622;BME280;10470;42.670;23.354;2023-03-15T08:45:14;93562.66;;;11.63;63.20
20622;BME280;10470;42.670;23.354;2023-03-15T08:47:40;93556.56;;;11.79;62.04
20622;BME280;10470;42.670;23.354;2023-03-15T08:50:10;93548.41;;;11.85;61.59
20622;BME280;10470;42.670;23.354;2023-03-15T08:52:36;93569.91;;;11.72;61.37
20622;BME280;10470;42.670;23.354;2023-03-15T08:55:02;93570.81;;;11.31;61.16
20622;BME280;10470;42.670;23.354;2023-03-15T08:57:31;93564.84;;;11.59;61.19
20622;BME280;10470;42.670;23.354;2023-03-15T09:00:01;93556.97;;;11.67;60.49
20622;BME280;10470;42.670;23.354;2023-03-15T09:02:32;93563.97;;;11.42;61.22
20622;BME280;10470;42.670;23.354;2023-03-15T09:04:57;93572.34;;;11.38;60.77
20622;BME280;10470;42.670;23.354;2023-03-15T09:07:23;93564.28;;;11.23;60.67
20622;BME280;10470;42.670;23.354;2023-03-15T09:09:48;93562.56;;;11.52;61.69
20622;BME280;10470;42.670;23.354;2023-03-15T09:12:15;93571.06;;;11.91;61.48
20622;BME280;10470;42.670;23.354;2023-03-15T09:14:40;93567.75;;;11.50;61.50
20622;BME280;10470;42.670;23.354;2023-03-15T09:17:06;93565.72;;;11.76;61.16
20622;BME280;10470;42.670;23.354;2023-03-15T09:19:31;93568.53;;;11.56;60.88
20622;BME280;10470;42.670;23.354;2023-03-15T09:21:57;93560.34;;;11.24;61.76
20622;BME280;10470;42.670;23.354;2023-03-15T09:24:22;93568.19;;;11.74;61.25
20622;BME280;10470;42.670;23.354;2023-03-15T09:26:48;93567.88;;;11.35;60.99
20622;BME280;10470;42.670;23.354;2023-03-15T09:29:13;93573.66;;;11.43;61.52
20622;BME280;10470;42.670;23.354;2023-03-15T09:31:39;93567.91;;;11.41;60.62
20622;BME280;10470;42.670;23.354;2023-03-15T09:34:05;93562.25;;;11.76;60.81
20622;BME280;10470;42.670;23.354;2023-03-15T09:36:31;93565.97;;;12.10;59.97
20622;BME280;10470;42.670;23.354;2023-03-15T09:38:57;93561.34;;;12.22;59.36
20622;BME280;10470;42.670;23.354;2023-03-15T09:44:13;93552.44;;;12.27;59.58
20622;BME280;10470;42.670;23.354;2023-03-15T09:47:00;93551.44;;;12.30;59.25
20622;BME280;10470;42.670;23.354;2023-03-15T09:49:38;93544.03;;;12.42;58.95
20622;BME280;10470;42.670;23.354;2023-03-15T09:52:34;93545.97;;;12.24;58.49
20622;BME280;10470;42.670;23.354;2023-03-15T09:55:13;93545.97;;;12.24;58.99
20622;BME280;10470;42.670;23.354;2023-03-15T09:57:58;93534.09;;;12.33;58.45
20622;BME280;10470;42.670;23.354;2023-03-15T10:00:50;93543.06;;;12.45;58.61
20622;BME280;10470;42.670;23.354;2023-03-15T10:03:32;93536.56;;;12.31;58.84
20622;BME280;10470;42.670;23.354;2023-03-15T10:06:07;93539.72;;;12.18;58.54
20622;BME280;10470;42.670;23.354;2023-03-15T10:08:36;93550.44;;;12.28;58.52
20622;BME280;10470;42.670;23.354;2023-03-15T10:11:22;93541.13;;;12.02;59.72
20622;BME280;10470;42.670;23.354;2023-03-15T10:27:21;93549.25;;;12.40;57.92
20622;BME280;10470;42.670;23.354;2023-03-15T10:29:52;93544.88;;;12.59;58.31
20622;BME280;10470;42.670;23.354;2023-03-15T10:32:22;93529.91;;;12.43;58.09
20622;BME280;10470;42.670;23.354;2023-03-15T10:34:55;93532.41;;;12.47;57.76
20622;BME280;10470;42.670;23.354;2023-03-15T10:37:25;93534.09;;;12.39;57.79
20622;BME280;10470;42.670;23.354;2023-03-15T10:39:56;93541.81;;;12.35;58.27
20622;BME280;10470;42.670;23.354;2023-03-15T10:42:27;93537.56;;;12.39;58.38
20622;BME280;10470;42.670;23.354;2023-03-15T10:44:54;93537.31;;;12.37;59.01
20622;BME280;10470;42.670;23.354;2023-03-15T10:47:20;93533.66;;;12.03;58.52
20622;BME280;10470;42.670;23.354;2023-03-15T10:49:47;93532.50;;;12.15;58.57
20622;BME280;10470;42.670;23.354;2023-03-15T10:52:26;93524.16;;;12.30;58.45
20622;BME280;10470;42.670;23.354;2023-03-15T10:54:52;93534.59;;;12.37;58.70
20622;BME280;10470;42.670;23.354;2023-03-15T10:57:19;93530.22;;;12.08;58.24
20622;BME280;10470;42.670;23.354;2023-03-15T10:59:56;93530.19;;;12.51;58.76
20622;BME280;10470;42.670;23.354;2023-03-15T11:02:24;93531.09;;;12.37;58.04
20622;BME280;10470;42.670;23.354;2023-03-15T11:05:00;93533.94;;;12.05;57.79
20622;BME280;10470;42.670;23.354;2023-03-15T11:07:26;93532.22;;;12.08;58.20
20622;BME280;10470;42.670;23.354;2023-03-15T11:10:00;93517.50;;;11.94;58.60
20622;BME280;10470;42.670;23.354;2023-03-15T11:12:31;93516.84;;;12.10;58.27
20622;BME280;10470;42.670;23.354;2023-03-15T11:15:13;93520.16;;;12.31;58.27
20622;BME280;10470;42.670;23.354;2023-03-15T11:17:46;93512.50;;;12.41;58.61
20622;BME280;10470;42.670;23.354;2023-03-15T11:20:35;93512.34;;;12.61;58.96
20622;BME280;10470;42.670;23.354;2023-03-15T11:23:28;93517.56;;;12.71;58.60
20622;BME280;10470;42.670;23.354;2023-03-15T11:25:54;93518.03;;;12.58;58.07
20622;BME280;10470;42.670;23.354;2023-03-15T11:28:28;93517.59;;;12.76;57.65
20622;BME280;10470;42.670;23.354;2023-03-15T11:30:57;93521.28;;;12.67;57.56
20622;BME280;10470;42.670;23.354;2023-03-15T11:33:47;93528.75;;;12.73;57.15
20622;BME280;10470;42.670;23.354;2023-03-15T11:36:20;93516.38;;;12.77;57.06
20622;BME280;10470;42.670;23.354;2023-03-15T11:38:47;93503.50;;;12.95;57.11
20622;BME280;10470;42.670;23.354;2023-03-15T11:41:24;93505.16;;;12.75;56.57
20622;BME280;10470;42.670;23.354;2023-03-15T11:46:31;93506.91;;;12.78;57.02
20622;BME280;10470;42.670;23.354;2023-03-15T11:49:13;93510.63;;;12.70;56.96
20622;BME280;10470;42.670;23.354;2023-03-15T11:51:40;93503.00;;;13.07;56.80
20622;BME280;10470;42.670;23.354;2023-03-15T11:54:08;93500.97;;;12.91;56.10
20622;BME280;10470;42.670;23.354;2023-03-15T11:56:56;93500.50;;;12.93;56.39
20622;BME280;10470;42.670;23.354;2023-03-15T11:59:30;93501.50;;;13.12;56.34
20622;BME280;10470;42.670;23.354;2023-03-15T12:07:05;93500.88;;;12.57;56.32
20622;BME280;10470;42.670;23.354;2023-03-15T12:09:39;93493.31;;;13.12;56.36
20622;BME280;10470;42.670;23.354;2023-03-15T12:22:50;93467.22;;;13.05;56.77
20622;BME280;10470;42.670;23.354;2023-03-15T12:25:31;93470.91;;;12.91;56.57
20622;BME280;10470;42.670;23.354;2023-03-15T12:28:01;93480.88;;;13.05;56.45
20622;BME280;10470;42.670;23.354;2023-03-15T12:30:40;93469.63;;;12.64;57.05
20622;BME280;10470;42.670;23.354;2023-03-15T12:33:18;93472.09;;;12.62;56.61
20622;BME280;10470;42.670;23.354;2023-03-15T12:35:46;93468.50;;;12.28;57.05
20622;BME280;10470;42.670;23.354;2023-03-15T12:38:21;93467.38;;;12.62;56.61
20622;BME280;10470;42.670;23.354;2023-03-15T12:40:57;93466.78;;;12.24;57.15
20622;BME280;10470;42.670;23.354;2023-03-15T12:43:42;93468.78;;;12.30;57.09
20622;BME280;10470;42.670;23.354;2023-03-15T12:54:21;93456.13;;;12.32;57.44
20622;BME280;10470;42.670;23.354;2023-03-15T12:57:09;93462.28;;;12.21;56.87
20622;BME280;10470;42.670;23.354;2023-03-15T12:59:55;93461.75;;;12.12;58.27
20622;BME280;10470;42.670;23.354;2023-03-15T13:02:27;93457.59;;;12.28;60.88
20622;BME280;10470;42.670;23.354;2023-03-15T13:05:08;93448.59;;;12.16;63.70
20622;BME280;10470;42.670;23.354;2023-03-15T13:10:29;93442.16;;;12.19;68.01
20622;BME280;10470;42.670;23.354;2023-03-15T13:15:30;93425.75;;;12.13;70.44
20622;BME280;10470;42.670;23.354;2023-03-15T13:18:09;93436.06;;;11.87;69.67
20622;BME280;10470;42.670;23.354;2023-03-15T13:23:29;93435.41;;;12.03;68.91
20622;BME280;10470;42.670;23.354;2023-03-15T13:26:11;93443.03;;;12.53;67.07
20622;BME280;10470;42.670;23.354;2023-03-15T13:28:47;93450.50;;;12.70;66.96
20622;BME280;10470;42.670;23.354;2023-03-15T13:31:26;93449.53;;;12.84;66.51
20622;BME280;10470;42.670;23.354;2023-03-15T13:33:56;93458.50;;;12.90;66.01
20622;BME280;10470;42.670;23.354;2023-03-15T13:36:28;93459.97;;;12.97;65.89
20622;BME280;10470;42.670;23.354;2023-03-15T13:39:10;93466.88;;;12.58;65.03
20622;BME280;10470;42.670;23.354;2023-03-15T13:41:38;93453.44;;;12.49;65.31
20622;BME280;10470;42.670;23.354;2023-03-15T13:44:15;93449.22;;;12.48;65.67
20622;BME280;10470;42.670;23.354;2023-03-15T13:46:40;93452.25;;;12.84;65.47
20622;BME280;10470;42.670;23.354;2023-03-15T13:49:06;93446.78;;;12.78;64.78
20622;BME280;10470;42.670;23.354;2023-03-15T13:51:34;93454.53;;;13.02;64.24
20622;BME280;10470;42.670;23.354;2023-03-15T13:54:30;93451.81;;;13.08;63.65
20622;BME280;10470;42.670;23.354;2023-03-15T13:56:59;93453.25;;;12.86;63.19
20622;BME280;10470;42.670;23.354;2023-03-15T13:59:31;93455.72;;;12.73;63.48
20622;BME280;10470;42.670;23.354;2023-03-15T14:02:00;93472.56;;;12.49;64.41